Time;durP1;ratioP1;P1;durP2;ratioP2;P2;SDS_P1;SDS_P2;PMS_P1;PMS_P2;Temp;Humidity;BMP_temperature;BMP_pressure;BME280_temperature;BME280_humidity;BME280_pressure;Samples;Min_cycle;Max_cycle;Signal;HPM_P1;HPM_P2
2023/06/29 00:03:25;;;;;;;;;;;;;;;;;;12980896;19;20021;-65
2023/06/29 00:07:43;;;;;;;5.65;3.17;;;;;;;;;;12979322;19;19934;-64
2023/06/29 00:12:01;;;;;;;;;;;;;;;;;;12979965;19;20031;-69
2023/06/29 00:16:19;;;;;;;3.83;2.70;;;;;;;;;;12980284;19;19923;-65
2023/06/29 00:20:36;;;;;;;;;;;;;;;;;;12980511;19;20014;-64
2023/06/29 00:24:59;;;;;;;3.40;2.65;;;;;;;;;;12979932;19;19915;-65
2023/06/29 00:29:17;;;;;;;3.65;2.80;;;;;;;;;;12979073;19;20018;-65
2023/06/29 00:33:34;;;;;;;7.30;2.95;;;;;;;;;;12976666;19;20082;-65
2023/06/29 00:37:52;;;;;;;5.13;3.08;;;;;;;;;;12978364;19;20029;-65
2023/06/29 00:42:11;;;;;;;4.50;3.00;;;;;;;;;;12977907;19;20768;-65
2023/06/29 00:46:29;;;;;;;10.07;2.90;;;;;;;;;;12974698;19;20041;-64
2023/06/29 00:50:47;;;;;;;3.92;3.10;;;;;;;;;;12977282;19;20473;-65
2023/06/29 00:55:06;;;;;;;5.55;3.38;;;;;;;;;;12976744;19;20014;-65
2023/06/29 00:59:24;;;;;;;7.03;3.60;;;;;;;;;;12975954;19;20037;-65
2023/06/29 01:03:42;;;;;;;;;;;;;;;;;;12981061;19;20010;-65
2023/06/29 01:08:16;;;;;;;3.88;2.95;;;;;;;;;;12977195;19;19918;-65
2023/06/29 01:12:34;;;;;;;6.68;3.38;;;;;;;;;;12975678;19;20027;-65
2023/06/29 01:16:55;;;;;;;3.53;3.05;;;;;;;;;;12974766;19;20013;-64
2023/06/29 01:21:15;;;;;;;5.97;3.13;;;;;;;;;;12972570;19;20035;-65
2023/06/29 01:25:35;;;;;;;6.63;3.35;;;;;;;;;;12975364;19;20044;-64
2023/06/29 01:29:55;;;;;;;4.90;3.20;;;;;;;;;;12974695;19;20400;-64
2023/06/29 01:34:13;;;;;;;5.50;2.97;;;;;;;;;;12975661;19;20026;-64
2023/06/29 01:38:39;;;;;;;5.72;3.30;;;;;;;;;;12975265;19;20445;-64
2023/06/29 01:42:57;;;;;;;5.53;3.20;;;;;;;;;;12973378;19;20035;-64
2023/06/29 01:47:17;;;;;;;6.80;3.35;;;;;;;;;;12974750;19;20021;-65
2023/06/29 01:51:35;;;;;;;6.22;3.22;;;;;;;;;;12973287;19;20014;-64
2023/06/29 01:55:53;;;;;;;8.15;3.78;;;;;;;;;;12976123;19;20014;-65
2023/06/29 02:00:12;;;;;;;8.02;3.38;;;;;;;;;;12986341;19;20011;-65
2023/06/29 02:04:30;;;;;;;4.82;3.08;;;;;;;;;;12988311;19;20014;-64
2023/06/29 02:08:48;;;;;;;;;;;;;;;;;;12987014;19;20422;-64
2023/06/29 02:13:06;;;;;;;4.25;3.13;;;;;;;;;;12986159;19;19951;-64
2023/06/29 02:17:23;;;;;;;5.45;3.50;;;;;;;;;;12986154;19;20027;-64
2023/06/29 02:21:41;;;;;;;4.35;3.25;;;;;;;;;;12985884;19;20021;-64
2023/06/29 02:25:59;;;;;;;11.88;3.97;;;;;;;;;;12986180;19;20047;-64
2023/06/29 02:30:16;;;;;;;8.18;3.42;;;;;;;;;;12984666;19;20025;-65
2023/06/29 02:34:34;;;;;;;4.60;3.55;;;;;;;;;;12983322;19;20018;-64
2023/06/29 02:38:51;;;;;;;4.35;3.00;;;;;;;;;;12985915;19;20022;-64
2023/06/29 02:43:09;;;;;;;5.30;3.63;;;;;;;;;;12984805;19;20021;-64
2023/06/29 02:47:28;;;;;;;8.02;3.90;;;;;;;;;;12984860;19;20895;-64
2023/06/29 02:51:46;;;;;;;7.35;4.10;;;;;;;;;;12985207;19;20015;-65
2023/06/29 02:56:04;;;;;;;4.57;3.35;;;;;;;;;;12984069;19;20011;-65
2023/06/29 03:00:21;;;;;;;9.48;3.35;;;;;;;;;;12983722;19;20021;-65
2023/06/29 03:04:39;;;;;;;;;;;;;;;;;;12984480;19;20019;-65
2023/06/29 03:08:58;;;;;;;5.13;3.38;;;;;;;;;;12981694;19;19933;-65
2023/06/29 03:13:15;;;;;;;4.15;3.42;;;;;;;;;;12981128;19;20037;-64
2023/06/29 03:17:33;;;;;;;5.68;3.67;;;;;;;;;;12975104;19;20501;-65
2023/06/29 03:21:51;;;;;;;7.35;4.00;;;;;;;;;;12980155;19;20780;-64
2023/06/29 03:26:09;;;;;;;5.97;4.10;;;;;;;;;;12978852;19;20830;-65
2023/06/29 03:30:26;;;;;;;6.88;4.15;;;;;;;;;;12980846;19;20362;-64
2023/06/29 03:34:44;;;;;;;8.13;4.80;;;;;;;;;;12982340;19;20106;-64
2023/06/29 03:39:03;;;;;;;8.52;4.03;;;;;;;;;;12981731;19;20014;-65
2023/06/29 03:43:20;;;;;;;10.65;4.35;;;;;;;;;;12981079;19;20373;-64
2023/06/29 03:47:38;;;;;;;9.85;4.07;;;;;;;;;;12981003;19;20045;-65
2023/06/29 03:51:56;;;;;;;10.93;3.97;;;;;;;;;;12980600;19;20019;-64
2023/06/29 03:56:14;;;;;;;;;;;;;;;;;;12979005;19;20038;-65
2023/06/29 04:00:31;;;;;;;5.00;3.90;;;;;;;;;;12980159;19;19918;-65
2023/06/29 04:04:49;;;;;;;;;;;;;;;;;;12980940;19;20014;-64
2023/06/29 04:09:07;;;;;;;7.18;4.47;;;;;;;;;;12979257;19;19923;-66
2023/06/29 04:13:24;;;;;;;7.13;4.30;;;;;;;;;;12980649;19;20714;-64
2023/06/29 04:17:42;;;;;;;5.90;4.20;;;;;;;;;;12979577;19;20019;-64
2023/06/29 04:22:00;;;;;;;5.90;3.83;;;;;;;;;;12979410;19;20031;-65
2023/06/29 04:26:21;;;;;;;;;;;;;;;;;;12979024;19;20015;-65
2023/06/29 04:30:40;;;;;;;7.65;3.88;;;;;;;;;;12978644;19;19922;-65
2023/06/29 04:35:01;;;;;;;7.32;3.67;;;;;;;;;;12978354;19;20470;-65
2023/06/29 04:39:20;;;;;;;7.90;4.53;;;;;;;;;;12977465;19;20038;-65
2023/06/29 04:43:38;;;;;;;;;;;;;;;;;;12977632;19;20393;-64
2023/06/29 04:47:56;;;;;;;;;;;;;;;;;;12976360;19;19914;-64
2023/06/29 04:52:14;;;;;;;5.95;3.95;;;;;;;;;;12977066;19;20338;-65
2023/06/29 04:56:32;;;;;;;7.22;4.15;;;;;;;;;;12977352;19;20026;-65
2023/06/29 05:00:49;;;;;;;;;;;;;;;;;;12978519;19;20014;-64
2023/06/29 05:05:09;;;;;;;8.43;4.65;;;;;;;;;;12976159;19;20003;-65
2023/06/29 05:09:26;;;;;;;;;;;;;;;;;;12977717;19;20018;-65
2023/06/29 05:13:44;;;;;;;8.43;5.05;;;;;;;;;;12976719;19;19944;-64
2023/06/29 05:18:01;;;;;;;6.85;4.30;;;;;;;;;;12975812;19;20018;-67
2023/06/29 05:22:19;;;;;;;9.75;4.53;;;;;;;;;;12976272;19;20063;-65
2023/06/29 05:26:36;;;;;;;6.20;4.47;;;;;;;;;;12973087;19;20015;-64
2023/06/29 05:30:54;;;;;;;8.18;4.70;;;;;;;;;;12976776;19;20014;-65
2023/06/29 05:35:12;;;;;;;7.30;4.28;;;;;;;;;;12987558;19;20018;-65
2023/06/29 05:39:29;;;;;;;;;;;;;;;;;;12988508;19;20003;-65
2023/06/29 05:43:47;;;;;;;6.95;4.72;;;;;;;;;;12988126;19;19922;-65
2023/06/29 05:48:05;;;;;;;;;;;;;;;;;;12986759;19;20128;-65
2023/06/29 05:52:23;;;;;;;6.03;3.75;;;;;;;;;;12987164;19;20257;-65
2023/06/29 05:56:41;;;;;;;;;;;;;;;;;;12988067;19;20015;-65
2023/06/29 06:00:59;;;;;;;7.38;4.28;;;;;;;;;;12987673;19;19918;-65
2023/06/29 06:05:17;;;;;;;5.63;4.47;;;;;;;;;;12987650;19;20058;-65
2023/06/29 06:09:35;;;;;;;;;;;;;;;;;;12987491;19;20469;-64
2023/06/29 06:13:52;;;;;;;10.05;4.45;;;;;;;;;;12985901;19;19914;-65
2023/06/29 06:18:09;;;;;;;9.52;4.38;;;;;;;;;;12982903;19;20021;-65
2023/06/29 06:22:27;;;;;;;;;;;;;;;;;;12986511;19;20860;-65
2023/06/29 06:26:44;;;;;;;7.13;4.90;;;;;;;;;;12983236;19;19926;-64
2023/06/29 06:31:02;;;;;;;;;;;;;;;;;;12984980;19;20469;-65
2023/06/29 06:35:20;;;;;;;8.65;4.15;;;;;;;;;;12985408;19;19911;-64
2023/06/29 06:39:38;;;;;;;4.82;3.72;;;;;;;;;;12985559;19;20788;-64
2023/06/29 06:43:57;;;;;;;6.65;4.50;;;;;;;;;;12982365;19;20014;-64
2023/06/29 06:48:14;;;;;;;5.07;4.10;;;;;;;;;;12982115;19;20019;-65
2023/06/29 06:52:32;;;;;;;7.13;4.82;;;;;;;;;;12984477;19;20662;-65
2023/06/29 06:56:51;;;;;;;6.70;4.07;;;;;;;;;;12983837;19;20013;-64
2023/06/29 07:01:09;;;;;;;8.23;5.20;;;;;;;;;;12982497;19;20018;-65
2023/06/29 07:05:28;;;;;;;6.90;4.05;;;;;;;;;;12983438;19;20038;-65
2023/06/29 07:09:45;;;;;;;7.00;3.90;;;;;;;;;;12983603;19;20029;-64
2023/06/29 07:14:04;;;;;;;;;;;;;;;;;;12982861;19;20418;-65
2023/06/29 07:18:21;;;;;;;5.43;4.00;;;;;;;;;;12983004;19;19935;-64
2023/06/29 07:22:39;;;;;;;;;;;;;;;;;;12983856;19;20014;-64
2023/06/29 07:27:00;;;;;;;6.40;3.85;;;;;;;;;;12981853;19;19911;-64
2023/06/29 07:31:25;;;;;;;7.32;4.10;;;;;;;;;;12981919;19;20035;-64
2023/06/29 07:35:43;;;;;;;5.25;3.50;;;;;;;;;;12982221;19;20022;-64
2023/06/29 07:40:04;;;;;;;6.55;4.10;;;;;;;;;;12981958;19;20042;-64
2023/06/29 07:44:21;;;;;;;4.95;3.38;;;;;;;;;;12979359;19;20129;-64
2023/06/29 07:48:39;;;;;;;4.75;3.28;;;;;;;;;;12980533;19;20039;-65
2023/06/29 07:52:57;;;;;;;4.10;2.90;;;;;;;;;;12979735;19;20014;-64
2023/06/29 07:57:15;;;;;;;;;;;;;;;;;;12980544;19;20065;-64
2023/06/29 08:01:37;;;;;;;4.88;3.30;;;;;;;;;;12980086;19;19928;-64
2023/06/29 08:05:56;;;;;;;4.57;3.15;;;;;;;;;;12980053;19;20038;-65
2023/06/29 08:10:17;;;;;;;6.43;3.05;;;;;;;;;;12979984;19;20100;-65
2023/06/29 08:14:37;;;;;;;5.22;3.15;;;;;;;;;;12980136;19;20021;-65
2023/06/29 08:18:55;;;;;;;5.13;3.30;;;;;;;;;;12977748;19;20039;-65
2023/06/29 08:23:14;;;;;;;5.07;3.17;;;;;;;;;;12978470;19;20108;-65
2023/06/29 08:27:32;;;;;;;3.05;2.53;;;;;;;;;;12977531;19;20038;-64
2023/06/29 08:31:50;;;;;;;;;;;;;;;;;;12977645;19;20010;-65
2023/06/29 08:36:11;;;;;;;4.20;3.10;;;;;;;;;;12977762;19;19918;-65
2023/06/29 08:40:34;;;;;;;5.90;3.45;;;;;;;;;;12978165;19;20010;-65
2023/06/29 08:44:53;;;;;;;3.75;2.58;;;;;;;;;;12977001;19;20030;-65
2023/06/29 08:49:11;;;;;;;4.75;2.63;;;;;;;;;;12975835;19;20051;-65
2023/06/29 08:53:29;;;;;;;4.05;3.28;;;;;;;;;;12977700;19;20022;-65
2023/06/29 08:57:48;;;;;;;6.32;3.20;;;;;;;;;;12977334;19;20015;-65
2023/06/29 09:02:06;;;;;;;4.70;3.42;;;;;;;;;;12974285;19;20036;-65
2023/06/29 09:06:24;;;;;;;5.97;2.97;;;;;;;;;;12974114;19;20002;-65
2023/06/29 09:10:46;;;;;;;6.82;3.38;;;;;;;;;;12977326;19;20019;-65
2023/06/29 09:15:13;;;;;;;6.15;3.50;;;;;;;;;;12975729;19;20023;-65
2023/06/29 09:19:32;;;;;;;6.95;3.40;;;;;;;;;;12974455;19;20015;-65
2023/06/29 09:23:50;;;;;;;10.27;4.53;;;;;;;;;;12975681;19;20056;-65
2023/06/29 09:28:08;;;;;;;7.35;3.88;;;;;;;;;;12973371;19;20347;-66
2023/06/29 09:32:29;;;;;;;4.60;3.50;;;;;;;;;;12973678;19;20025;-65
2023/06/29 09:36:47;;;;;;;8.13;4.40;;;;;;;;;;12973185;19;20018;-65
2023/06/29 09:41:06;;;;;;;5.13;3.50;;;;;;;;;;12974738;19;20014;-65
2023/06/29 09:45:31;;;;;;;5.85;4.22;;;;;;;;;;12974545;19;20021;-65
2023/06/29 09:49:50;;;;;;;5.53;3.70;;;;;;;;;;12973429;19;20010;-65
2023/06/29 09:54:14;;;;;;;6.13;4.20;;;;;;;;;;12973227;19;20118;-65
2023/06/29 09:58:32;;;;;;;5.43;4.13;;;;;;;;;;12973708;19;20006;-65
2023/06/29 10:02:50;;;;;;;6.03;3.80;;;;;;;;;;12971625;19;20014;-66
2023/06/29 10:07:14;;;;;;;6.93;4.15;;;;;;;;;;12971668;19;20864;-65
2023/06/29 10:11:36;;;;;;;9.52;3.70;;;;;;;;;;12971193;19;20496;-65
2023/06/29 10:15:55;;;;;;;7.32;4.13;;;;;;;;;;12971338;19;20048;-65
2023/06/29 10:20:15;;;;;;;7.30;4.47;;;;;;;;;;12984594;19;20895;-65
2023/06/29 10:24:43;;;;;;;5.55;3.83;;;;;;;;;;12983066;19;20018;-65
2023/06/29 10:29:03;;;;;;;5.63;3.35;;;;;;;;;;12982500;19;20010;-67
2023/06/29 10:33:22;;;;;;;6.78;2.90;;;;;;;;;;12982396;19;20010;-65
2023/06/29 10:37:45;;;;;;;6.95;3.10;;;;;;;;;;12984744;19;20042;-66
2023/06/29 10:42:32;;;;;;;3.95;2.63;;;;;;;;;;12982290;19;20089;-66
2023/06/29 10:46:51;;;;;;;4.22;3.10;;;;;;;;;;12983460;19;20026;-65
2023/06/29 10:51:13;;;;;;;8.30;3.35;;;;;;;;;;12982758;19;20785;-65
2023/06/29 10:55:38;;;;;;;5.97;3.30;;;;;;;;;;12980980;19;20026;-65
2023/06/29 10:59:56;;;;;;;3.45;2.80;;;;;;;;;;12983350;19;20018;-65
2023/06/29 11:04:14;;;;;;;8.57;3.38;;;;;;;;;;12981179;19;20098;-66
2023/06/29 11:08:32;;;;;;;6.72;4.03;;;;;;;;;;12982677;19;20015;-65
2023/06/29 11:12:51;;;;;;;6.05;3.03;;;;;;;;;;12982701;19;20017;-66
2023/06/29 11:17:09;;;;;;;4.20;2.92;;;;;;;;;;12981689;19;20014;-66
2023/06/29 11:21:27;;;;;;;6.13;3.45;;;;;;;;;;12982549;19;20010;-66
2023/06/29 11:25:45;;;;;;;4.05;3.00;;;;;;;;;;12982391;19;20130;-65
2023/06/29 11:30:07;;;;;;;6.72;3.47;;;;;;;;;;12978214;19;20025;-65
2023/06/29 11:34:25;;;;;;;4.68;3.10;;;;;;;;;;12982296;19;20525;-66
2023/06/29 11:38:42;;;;;;;3.53;3.00;;;;;;;;;;12981044;19;20025;-66
2023/06/29 11:43:02;;;;;;;6.95;3.35;;;;;;;;;;12980295;19;20501;-66
2023/06/29 11:47:20;;;;;;;4.13;2.60;;;;;;;;;;12980360;19;20022;-66
2023/06/29 11:51:50;;;;;;;6.07;3.45;;;;;;;;;;12980688;19;20020;-65
2023/06/29 11:56:36;;;;;;;4.20;2.70;;;;;;;;;;12979660;19;20011;-66
2023/06/29 12:00:57;;;;;;;6.30;3.00;;;;;;;;;;12980301;19;20051;-65
2023/06/29 12:05:15;;;;;;;9.05;2.92;;;;;;;;;;12980149;19;20043;-66
2023/06/29 12:09:34;;;;;;;4.78;3.03;;;;;;;;;;12978537;19;20027;-65
2023/06/29 12:13:54;;;;;;;7.35;3.45;;;;;;;;;;12979308;19;20014;-66
2023/06/29 12:18:14;;;;;;;4.25;3.03;;;;;;;;;;12977673;19;20745;-66
2023/06/29 12:22:33;;;;;;;10.02;3.65;;;;;;;;;;12978893;19;20018;-65
2023/06/29 12:26:51;;;;;;;5.35;2.50;;;;;;;;;;12978947;19;20117;-66
2023/06/29 12:31:09;;;;;;;6.25;3.28;;;;;;;;;;12977100;19;20099;-65
2023/06/29 12:35:28;;;;;;;5.72;2.65;;;;;;;;;;12978566;19;20018;-65
2023/06/29 12:39:48;;;;;;;5.53;2.50;;;;;;;;;;12978648;19;20106;-65
2023/06/29 12:44:05;;;;;;;7.80;1.90;;;;;;;;;;12977580;19;20018;-66
2023/06/29 12:48:23;;;;;;;3.25;1.70;;;;;;;;;;12977635;19;20022;-66
2023/06/29 12:52:41;;;;;;;2.35;1.80;;;;;;;;;;12975413;19;20130;-66
2023/06/29 12:56:59;;;;;;;3.88;1.85;;;;;;;;;;12977393;19;20031;-66
2023/06/29 13:01:17;;;;;;;2.67;1.83;;;;;;;;;;12977034;19;20018;-66
2023/06/29 13:05:34;;;;;;;3.15;1.98;;;;;;;;;;12975974;19;20011;-66
2023/06/29 13:09:52;;;;;;;2.47;1.70;;;;;;;;;;12975486;19;20011;-66
2023/06/29 13:14:11;;;;;;;3.78;1.98;;;;;;;;;;12976027;19;20022;-65
2023/06/29 13:18:28;;;;;;;4.50;2.00;;;;;;;;;;12976020;19;20018;-65
2023/06/29 13:22:46;;;;;;;2.50;1.90;;;;;;;;;;12975511;19;20035;-65
2023/06/29 13:27:05;;;;;;;3.25;2.00;;;;;;;;;;12974750;19;20077;-66
2023/06/29 13:31:23;;;;;;;3.42;2.17;;;;;;;;;;12975293;19;20018;-65
2023/06/29 13:35:41;;;;;;;4.03;1.73;;;;;;;;;;12975775;19;20041;-66
2023/06/29 13:39:58;;;;;;;3.10;1.70;;;;;;;;;;12974024;19;20022;-65
2023/06/29 13:44:17;;;;;;;4.95;2.00;;;;;;;;;;12975024;19;20025;-66
2023/06/29 13:48:35;;;;;;;3.35;2.00;;;;;;;;;;12974003;19;20019;-66
2023/06/29 13:52:54;;;;;;;2.00;1.55;;;;;;;;;;12979487;19;20037;-65
2023/06/29 13:57:11;;;;;;;4.20;1.90;;;;;;;;;;12986120;19;20029;-65
2023/06/29 14:01:30;;;;;;;3.05;1.80;;;;;;;;;;12986983;19;20477;-65
2023/06/29 14:05:47;;;;;;;2.03;1.52;;;;;;;;;;12984751;19;20023;-65
2023/06/29 14:10:06;;;;;;;4.00;1.90;;;;;;;;;;12985462;19;20818;-65
2023/06/29 14:14:23;;;;;;;3.05;1.95;;;;;;;;;;12986915;19;20047;-65
2023/06/29 14:18:40;;;;;;;4.30;2.33;;;;;;;;;;12983760;19;20015;-65
2023/06/29 14:22:59;;;;;;;3.38;1.70;;;;;;;;;;12986128;19;20010;-64
2023/06/29 14:27:18;;;;;;;4.38;1.75;;;;;;;;;;12984619;19;20022;-65
2023/06/29 14:31:36;;;;;;;3.10;1.35;;;;;;;;;;12985183;19;20033;-65
2023/06/29 14:35:54;;;;;;;3.28;1.60;;;;;;;;;;12983054;19;20026;-65
2023/06/29 14:40:12;;;;;;;3.03;1.80;;;;;;;;;;12984088;19;20239;-64
2023/06/29 14:44:30;;;;;;;2.35;1.77;;;;;;;;;;12983968;19;20018;-63
2023/06/29 14:48:48;;;;;;;2.38;1.73;;;;;;;;;;12983200;19;20043;-63
2023/06/29 14:53:06;;;;;;;2.90;1.95;;;;;;;;;;12983184;19;20546;-64
2023/06/29 14:57:24;;;;;;;2.13;1.70;;;;;;;;;;12983525;19;20010;-64
2023/06/29 15:01:41;;;;;;;;;;;;;;;;;;12984638;19;20772;-64
2023/06/29 15:05:59;;;;;;;2.80;1.48;;;;;;;;;;12981705;19;19923;-63
2023/06/29 15:10:17;;;;;;;3.05;1.70;;;;;;;;;;12983484;19;20733;-64
2023/06/29 15:14:35;;;;;;;6.68;2.03;;;;;;;;;;12983299;19;20006;-64
2023/06/29 15:18:53;;;;;;;3.63;1.50;;;;;;;;;;12982794;19;20018;-64
2023/06/29 15:23:16;;;;;;;3.40;1.83;;;;;;;;;;12982218;19;20022;-64
2023/06/29 15:27:34;;;;;;;3.88;1.50;;;;;;;;;;12980375;19;20023;-64
2023/06/29 15:31:52;;;;;;;1.85;1.30;;;;;;;;;;12980617;19;20028;-64
2023/06/29 15:36:09;;;;;;;2.40;1.45;;;;;;;;;;12978795;19;20018;-64
2023/06/29 15:40:27;;;;;;;2.08;1.67;;;;;;;;;;12981646;19;20007;-63
2023/06/29 15:44:45;;;;;;;2.75;1.80;;;;;;;;;;12978244;19;20017;-63
2023/06/29 15:49:03;;;;;;;4.43;1.55;;;;;;;;;;12965752;19;20022;-64
2023/06/29 15:53:20;;;;;;;2.42;1.65;;;;;;;;;;12978796;19;20018;-63
2023/06/29 15:57:38;;;;;;;5.88;1.75;;;;;;;;;;12979280;19;20399;-64
2023/06/29 16:01:55;;;;;;;;;;;;;;;;;;12980626;19;20130;-64
2023/06/29 16:06:13;;;;;;;1.67;1.30;;;;;;;;;;12979065;19;19948;-64
2023/06/29 16:10:31;;;;;;;;;;;;;;;;;;12979721;19;20011;-64
2023/06/29 16:14:48;;;;;;;1.80;1.20;;;;;;;;;;12978803;19;19919;-64
2023/06/29 16:19:06;;;;;;;4.63;1.48;;;;;;;;;;12976511;19;20048;-62
2023/06/29 16:23:24;;;;;;;1.65;1.33;;;;;;;;;;12975415;19;20023;-62
2023/06/29 16:27:41;;;;;;;2.30;1.40;;;;;;;;;;12979244;19;20030;-63
2023/06/29 16:31:59;;;;;;;1.77;1.17;;;;;;;;;;12971791;19;20081;-63
2023/06/29 16:36:17;;;;;;;3.42;1.67;;;;;;;;;;12974941;19;20364;-63
2023/06/29 16:40:35;;;;;;;;;;;;;;;;;;12976833;19;20520;-63
2023/06/29 16:44:52;;;;;;;1.60;1.27;;;;;;;;;;12977499;19;19918;-63
2023/06/29 16:49:18;;;;;;;2.92;1.50;;;;;;;;;;12981610;19;20014;-63
2023/06/29 16:53:36;;;;;;;2.33;1.60;;;;;;;;;;12982590;19;20030;-63
2023/06/29 16:57:54;;;;;;;;;;;;;;;;;;12982975;19;20042;-63
2023/06/29 17:02:12;;;;;;;3.30;1.23;;;;;;;;;;12981641;19;20294;-62
2023/06/29 17:06:29;;;;;;;2.20;1.30;;;;;;;;;;12981732;19;20006;-63
2023/06/29 17:10:47;;;;;;;2.78;1.38;;;;;;;;;;12980863;19;20366;-63
2023/06/29 17:15:06;;;;;;;3.10;1.30;;;;;;;;;;12981721;19;20834;-63
2023/06/29 17:19:24;;;;;;;2.65;1.40;;;;;;;;;;12980666;19;20045;-63
2023/06/29 17:23:41;;;;;;;2.10;1.30;;;;;;;;;;12976880;19;20039;-63
2023/06/29 17:28:00;;;;;;;;;;;;;;;;;;12982340;19;20467;-63
2023/06/29 17:32:17;;;;;;;5.40;1.30;;;;;;;;;;12987859;19;19923;-63
2023/06/29 17:36:35;;;;;;;;;;;;;;;;;;12989110;19;20014;-62
2023/06/29 17:40:53;;;;;;;3.80;1.13;;;;;;;;;;12988028;19;19929;-63
2023/06/29 17:45:11;;;;;;;2.40;1.48;;;;;;;;;;12982643;19;20121;-63
2023/06/29 17:49:28;;;;;;;1.80;1.15;;;;;;;;;;12975844;19;20876;-63
2023/06/29 17:53:46;;;;;;;;;;;;;;;;;;12984516;19;20108;-63
2023/06/29 17:58:05;;;;;;;2.20;1.30;;;;;;;;;;12983712;19;19931;-63
2023/06/29 18:02:23;;;;;;;5.25;1.30;;;;;;;;;;12986829;19;20042;-63
2023/06/29 18:06:41;;;;;;;2.85;1.40;;;;;;;;;;12986531;19;20015;-63
2023/06/29 18:10:58;;;;;;;1.40;1.20;;;;;;;;;;12983566;19;20010;-63
2023/06/29 18:15:16;;;;;;;;;;;;;;;;;;12987000;19;20014;-63
2023/06/29 18:19:34;;;;;;;4.65;1.60;;;;;;;;;;12986365;19;19919;-63
2023/06/29 18:23:52;;;;;;;3.58;1.70;;;;;;;;;;12985837;19;20051;-63
2023/06/29 18:28:09;;;;;;;3.03;1.60;;;;;;;;;;12982994;19;20023;-63
2023/06/29 18:32:26;;;;;;;;;;;;;;;;;;12984827;19;20018;-63
2023/06/29 18:36:44;;;;;;;5.82;1.58;;;;;;;;;;12984531;19;19923;-63
2023/06/29 18:41:02;;;;;;;;;;;;;;;;;;12984101;19;20010;-63
2023/06/29 18:45:19;;;;;;;4.97;2.78;;;;;;;;;;12981530;19;20342;-62
2023/06/29 18:49:43;;;;;;;3.50;1.85;;;;;;;;;;12984503;19;20380;-62
2023/06/29 18:54:08;;;;;;;3.67;1.70;;;;;;;;;;12983992;19;20014;-62
2023/06/29 18:58:26;;;;;;;;;;;;;;;;;;12985019;19;20018;-62
2023/06/29 19:02:43;;;;;;;3.45;2.15;;;;;;;;;;12984215;19;19956;-62
2023/06/29 19:07:03;;;;;;;9.93;1.88;;;;;;;;;;12983142;19;20018;-64
2023/06/29 19:11:21;;;;;;;6.40;2.03;;;;;;;;;;12983068;19;20010;-62
2023/06/29 19:15:40;;;;;;;2.75;1.85;;;;;;;;;;12983471;19;20771;-63
2023/06/29 19:19:58;;;;;;;2.28;1.67;;;;;;;;;;12982393;19;20022;-62
2023/06/29 19:24:16;;;;;;;;;;;;;;;;;;12982156;19;20628;-62
2023/06/29 19:28:34;;;;;;;4.13;1.88;;;;;;;;;;12982264;19;19935;-62
2023/06/29 19:32:52;;;;;;;3.33;1.88;;;;;;;;;;12981035;19;20033;-62
2023/06/29 19:37:10;;;;;;;;;;;;;;;;;;12982137;19;20018;-62
2023/06/29 19:41:28;;;;;;;2.75;1.80;;;;;;;;;;12981239;19;19925;-62
2023/06/29 19:45:47;;;;;;;3.08;2.13;;;;;;;;;;12981715;19;20018;-62
2023/06/29 19:50:06;;;;;;;2.80;1.92;;;;;;;;;;12977123;19;20018;-62
2023/06/29 19:54:24;;;;;;;5.60;2.17;;;;;;;;;;12980566;19;20045;-63
2023/06/29 19:58:42;;;;;;;4.15;1.63;;;;;;;;;;12980710;19;20368;-62
2023/06/29 20:02:59;;;;;;;;;;;;;;;;;;12980327;19;20118;-61
2023/06/29 20:07:17;;;;;;;3.40;1.90;;;;;;;;;;12979837;19;20309;-62
2023/06/29 20:11:35;;;;;;;3.05;1.90;;;;;;;;;;12979578;19;20039;-63
2023/06/29 20:15:53;;;;;;;;;;;;;;;;;;12980552;19;20018;-62
2023/06/29 20:20:11;;;;;;;3.30;2.10;;;;;;;;;;12979090;19;19922;-62
2023/06/29 20:24:29;;;;;;;3.15;2.20;;;;;;;;;;12977537;19;20014;-63
2023/06/29 20:28:48;;;;;;;5.32;2.03;;;;;;;;;;12978712;19;20014;-62
2023/06/29 20:33:05;;;;;;;;;;;;;;;;;;12978535;19;20017;-62
2023/06/29 20:37:23;;;;;;;3.80;1.88;;;;;;;;;;12978719;19;19948;-62
2023/06/29 20:41:41;;;;;;;2.45;1.75;;;;;;;;;;12977861;19;20007;-62
2023/06/29 20:46:00;;;;;;;3.88;2.47;;;;;;;;;;12977789;19;20046;-62
2023/06/29 20:50:17;;;;;;;4.70;2.15;;;;;;;;;;12977234;19;20030;-62
2023/06/29 20:54:35;;;;;;;3.83;2.17;;;;;;;;;;12977361;19;20772;-63
2023/06/29 20:58:53;;;;;;;10.75;3.05;;;;;;;;;;12977171;19;20010;-62
2023/06/29 21:03:11;;;;;;;3.42;2.20;;;;;;;;;;12974134;19;20355;-62
2023/06/29 21:07:30;;;;;;;10.48;2.50;;;;;;;;;;12978029;19;20022;-62
2023/06/29 21:11:48;;;;;;;4.82;2.17;;;;;;;;;;12977502;19;20022;-62
2023/06/29 21:16:06;;;;;;;;;;;;;;;;;;12977208;19;20018;-62
2023/06/29 21:20:24;;;;;;;3.10;2.20;;;;;;;;;;12976905;19;19919;-62
2023/06/29 21:24:42;;;;;;;3.85;2.70;;;;;;;;;;12976376;19;20014;-62
2023/06/29 21:29:01;;;;;;;7.05;3.05;;;;;;;;;;12973878;19;20125;-62
2023/06/29 21:33:39;;;;;;;6.15;3.50;;;;;;;;;;12975029;19;20835;-62
2023/06/29 21:37:57;;;;;;;5.47;2.90;;;;;;;;;;12975505;19;20022;-62
2023/06/29 21:42:15;;;;;;;5.15;3.03;;;;;;;;;;12975007;19;20728;-62
2023/06/29 21:46:33;;;;;;;10.15;3.60;;;;;;;;;;12975463;19;20019;-62
2023/06/29 21:50:51;;;;;;;;;;;;;;;;;;12975845;19;20019;-62
2023/06/29 21:55:08;;;;;;;;;;;;;;;;;;12972955;19;20360;-63
2023/06/29 21:59:26;;;;;;;;;;;;;;;;;;12974821;19;20292;-62
2023/06/29 22:03:44;;;;;;;4.88;2.88;;;;;;;;;;12974178;19;19944;-62
2023/06/29 22:08:02;;;;;;;;;;;;;;;;;;12974470;19;20462;-61
2023/06/29 22:12:19;;;;;;;;;;;;;;;;;;12974832;19;19914;-62
2023/06/29 22:16:37;;;;;;;6.57;2.45;;;;;;;;;;12986335;19;20677;-62
2023/06/29 22:20:55;;;;;;;5.95;3.40;;;;;;;;;;12986411;19;20039;-62
2023/06/29 22:25:13;;;;;;;;;;;;;;;;;;12969688;19;20041;-62
2023/06/29 22:29:30;;;;;;;7.32;3.50;;;;;;;;;;12985536;19;19956;-62
2023/06/29 22:33:48;;;;;;;;;;;;;;;;;;12985989;19;20010;-61
2023/06/29 22:38:08;;;;;;;5.63;2.95;;;;;;;;;;12984562;19;19918;-63
2023/06/29 22:42:26;;;;;;;9.63;3.28;;;;;;;;;;12985222;19;20018;-62
2023/06/29 22:46:43;;;;;;;4.95;3.03;;;;;;;;;;12984177;19;20082;-62
2023/06/29 22:51:02;;;;;;;7.97;3.78;;;;;;;;;;12982148;19;20466;-64
2023/06/29 22:55:19;;;;;;;;;;;;;;;;;;12984472;19;20014;-61
2023/06/29 22:59:37;;;;;;;;;;;;;;;;;;12985162;19;19915;-61
2023/06/29 23:03:55;;;;;;;8.70;4.55;;;;;;;;;;12982982;19;19918;-60
2023/06/29 23:08:13;;;;;;;;;;;;;;;;;;12984704;19;20018;-61
2023/06/29 23:12:30;;;;;;;6.03;4.15;;;;;;;;;;12982745;19;19939;-61
2023/06/29 23:16:48;;;;;;;11.10;5.57;;;;;;;;;;12984123;19;20022;-61
2023/06/29 23:21:06;;;;;;;11.10;4.30;;;;;;;;;;12982508;19;20018;-61
2023/06/29 23:25:24;;;;;;;7.47;4.63;;;;;;;;;;12980307;19;20010;-61
2023/06/29 23:29:42;;;;;;;6.47;3.90;;;;;;;;;;12981605;19;20018;-61
2023/06/29 23:34:00;;;;;;;6.32;3.45;;;;;;;;;;12981769;19;20048;-61
2023/06/29 23:38:18;;;;;;;;;;;;;;;;;;12982858;19;20018;-61
2023/06/29 23:42:42;;;;;;;7.65;4.32;;;;;;;;;;12981419;19;19911;-61
2023/06/29 23:47:00;;;;;;;6.43;3.67;;;;;;;;;;12981302;19;20034;-61
2023/06/29 23:51:17;;;;;;;7.90;3.67;;;;;;;;;;12980802;19;20031;-61
2023/06/29 23:55:35;;;;;;;6.57;4.00;;;;;;;;;;12980605;19;20010;-61
2023/06/29 23:59:54;;;;;;;6.38;3.45;;;;;;;;;;12981901;19;20040;-61
